Time;durP1;ratioP1;P1;durP2;ratioP2;P2;SDS_P1;SDS_P2;PMS_P1;PMS_P2;Temp;Humidity;BMP_temperature;BMP_pressure;BME280_temperature;BME280_humidity;BME280_pressure;Samples;Min_cycle;Max_cycle;Signal;HPM_P1;HPM_P2
2022/07/01 00:00:05;;;;;;;12.75;6.97;;;;;;;22.90;60.43;98885.88;1665972;86;21031;-84
2022/07/01 00:02:35;;;;;;;;;;;;;;;22.94;60.59;98886.45;1662077;86;21096;-85
2022/07/01 00:05:02;;;;;;;11.12;6.28;;;;;;;22.93;60.95;98886.94;1697764;84;20101;-84
2022/07/01 00:07:47;;;;;;;10.53;6.53;;;;;;;22.91;60.56;98876.11;1683549;85;21468;-84
2022/07/01 00:10:14;;;;;;;13.90;7.12;;;;;;;22.90;61.02;98878.38;1678401;85;21023;-84
2022/07/01 00:12:41;;;;;;;14.65;7.85;;;;;;;22.86;60.18;98878.27;1675449;85;21003;-84
2022/07/01 00:15:09;;;;;;;11.28;7.17;;;;;;;22.82;60.69;98877.69;1682975;85;21043;-85
2022/07/01 00:17:36;;;;;;;18.32;7.37;;;;;;;22.81;60.45;98883.45;1698516;85;20987;-85
2022/07/01 00:20:11;;;;;;;14.63;8.25;;;;;;;22.76;60.29;98886.97;1691064;84;21016;-85
2022/07/01 00:22:36;;;;;;;13.35;6.70;;;;;;;22.70;60.97;98880.83;1680436;85;21061;-85
2022/07/01 00:25:04;;;;;;;12.73;6.83;;;;;;;22.64;61.17;98878.17;1677825;84;20983;-86
2022/07/01 00:27:31;;;;;;;13.03;6.75;;;;;;;22.61;60.64;98876.23;1699071;84;20997;-85
2022/07/01 00:29:58;;;;;;;13.10;6.70;;;;;;;22.58;60.85;98878.66;1688730;84;20996;-84
2022/07/01 00:32:24;;;;;;;13.88;6.60;;;;;;;22.57;61.55;98876.12;1693685;84;21087;-85
2022/07/01 00:34:51;;;;;;;10.40;6.53;;;;;;;22.59;61.46;98874.19;1688104;84;20924;-85
2022/07/01 00:37:18;;;;;;;11.35;6.33;;;;;;;22.64;61.55;98874.20;1698597;84;21075;-83
2022/07/01 00:39:45;;;;;;;16.97;6.53;;;;;;;22.67;61.92;98870.45;1692020;83;20968;-85
2022/07/01 00:42:12;;;;;;;9.63;6.50;;;;;;;22.70;61.69;98868.03;1695690;84;21016;-84
2022/07/01 00:44:39;;;;;;;7.95;5.97;;;;;;;22.73;61.79;98867.80;1700305;83;20967;-84
2022/07/01 00:47:10;;;;;;;10.28;6.58;;;;;;;22.78;61.46;98866.94;1686053;85;21041;-85
2022/07/01 00:49:39;;;;;;;11.15;6.33;;;;;;;22.78;61.83;98863.83;1696572;84;21032;-85
2022/07/01 00:52:08;;;;;;;9.05;6.30;;;;;;;22.82;61.91;98859.97;1698663;84;21043;-85
2022/07/01 00:54:37;;;;;;;10.00;6.75;;;;;;;22.84;61.99;98867.81;1698127;84;20960;-86
2022/07/01 00:57:11;;;;;;;10.88;6.67;;;;;;;22.84;61.95;98873.95;1698592;84;21055;-85
2022/07/01 00:59:40;;;;;;;11.05;6.00;;;;;;;22.84;62.15;98866.48;1698659;84;21067;-85
2022/07/01 01:02:08;;;;;;;14.85;6.95;;;;;;;22.83;62.37;98863.45;1698633;84;21559;-84
2022/07/01 01:04:35;;;;;;;12.63;6.17;;;;;;;22.76;61.12;98859.59;1671051;84;21035;-84
2022/07/01 01:07:03;;;;;;;11.93;6.08;;;;;;;22.69;61.85;98867.20;1698705;84;20992;-85
2022/07/01 01:09:30;;;;;;;11.68;5.83;;;;;;;22.67;61.81;98871.78;1678690;84;20995;-84
2022/07/01 01:12:00;;;;;;;11.97;7.03;;;;;;;22.60;60.59;98875.41;1664485;84;20984;-85
2022/07/01 01:14:27;;;;;;;11.08;6.35;;;;;;;22.52;62.28;98875.16;1662483;86;20990;-84
2022/07/01 01:16:54;;;;;;;17.12;7.03;;;;;;;22.50;62.61;98871.79;1731236;83;20979;-84
2022/07/01 01:19:21;;;;;;;11.48;6.83;;;;;;;22.47;62.49;98874.66;1668109;86;21036;-83
2022/07/01 01:21:47;;;;;;;9.98;6.60;;;;;;;22.45;62.82;98868.64;1663657;85;21071;-84
2022/07/01 01:24:14;;;;;;;10.75;6.28;;;;;;;22.43;62.75;98871.89;1701813;83;20999;-84
2022/07/01 01:26:41;;;;;;;12.43;5.92;;;;;;;22.40;63.16;98870.33;1676703;85;20988;-84
2022/07/01 01:29:08;;;;;;;10.63;5.85;;;;;;;22.39;63.16;98880.55;1692834;84;21068;-85
2022/07/01 01:31:35;;;;;;;10.40;5.97;;;;;;;22.36;61.35;98882.13;1692137;84;20990;-84
2022/07/01 01:34:02;;;;;;;8.15;5.15;;;;;;;22.27;61.38;98885.48;1698080;84;21027;-84
2022/07/01 01:36:29;;;;;;;10.30;5.30;;;;;;;22.22;62.57;98892.42;1663806;84;21116;-85
2022/07/01 01:39:03;;;;;;;10.35;6.25;;;;;;;22.20;62.02;98890.38;1680615;85;21058;-84
2022/07/01 01:41:28;;;;;;;10.68;5.55;;;;;;;22.15;61.58;98894.33;1726407;83;21042;-84
2022/07/01 01:43:54;;;;;;;13.15;6.05;;;;;;;22.08;62.08;98897.91;1726128;83;21018;-83
2022/07/01 01:46:21;;;;;;;10.95;5.05;;;;;;;22.08;62.05;98893.09;1726169;83;20987;-85
2022/07/01 01:48:48;;;;;;;9.85;5.12;;;;;;;22.01;62.27;98893.56;1719961;83;21023;-85
2022/07/01 01:51:14;;;;;;;8.05;5.03;;;;;;;22.02;62.52;98897.91;1727208;83;21034;-84
2022/07/01 01:53:41;;;;;;;9.60;4.97;;;;;;;22.02;62.66;98897.05;1726154;83;21527;-84
2022/07/01 01:56:08;;;;;;;10.13;5.50;;;;;;;22.02;62.52;98900.56;1726900;83;20991;-85
2022/07/01 01:58:35;;;;;;;7.85;5.03;;;;;;;22.03;62.76;98908.02;1725562;83;21023;-85
2022/07/01 02:01:02;;;;;;;7.92;5.05;;;;;;;22.02;63.02;98901.88;1715804;83;20990;-85
2022/07/01 02:03:29;;;;;;;8.45;5.08;;;;;;;22.04;63.44;98899.97;1719050;83;21007;-85
2022/07/01 02:05:55;;;;;;;9.15;5.03;;;;;;;22.07;63.15;98902.84;1713348;83;20995;-85
2022/07/01 02:08:22;;;;;;;9.08;5.10;;;;;;;22.08;62.72;98901.88;1704434;83;20951;-84
2022/07/01 02:10:49;;;;;;;8.50;5.67;;;;;;;22.07;62.86;98902.84;1726277;83;21011;-84
2022/07/01 02:13:16;;;;;;;8.00;5.47;;;;;;;22.04;63.01;98903.94;1727713;83;20995;-85
2022/07/01 02:15:42;;;;;;;11.15;6.00;;;;;;;21.99;62.79;98910.04;1727163;83;21024;-84
2022/07/01 02:18:09;;;;;;;10.85;5.53;;;;;;;21.95;62.63;98919.17;1726200;83;21450;-84
2022/07/01 02:20:36;;;;;;;12.07;6.08;;;;;;;21.90;62.41;98917.82;1718891;80;20991;-83
2022/07/01 02:23:03;;;;;;;11.95;5.97;;;;;;;21.87;63.11;98924.20;1729322;80;20948;-84
2022/07/01 02:25:29;;;;;;;8.05;5.50;;;;;;;21.86;63.56;98926.47;1729358;80;20999;-84
2022/07/01 02:27:57;;;;;;;13.75;6.58;;;;;;;21.85;63.70;98924.80;1704517;83;21107;-84
2022/07/01 02:30:25;;;;;;;11.88;6.70;;;;;;;21.82;64.76;98930.30;1726770;83;20975;-83
2022/07/01 02:32:52;;;;;;;12.75;7.08;;;;;;;21.76;64.49;98931.59;1726400;83;21003;-84
2022/07/01 02:35:18;;;;;;;11.20;6.50;;;;;;;21.73;64.27;98929.19;1726442;83;20991;-84
2022/07/01 02:37:45;;;;;;;9.70;6.47;;;;;;;21.69;64.68;98926.89;1726525;83;21078;-84
2022/07/01 02:40:16;;;;;;;9.93;6.83;;;;;;;21.63;65.10;98928.19;1732572;82;20974;-84
2022/07/01 02:42:41;;;;;;;12.53;7.55;;;;;;;21.60;65.37;98931.03;1702379;83;21514;-84
2022/07/01 02:45:08;;;;;;;32.58;14.80;;;;;;;21.56;65.79;98942.31;1734350;83;21006;-84
2022/07/01 02:47:38;;;;;;;70.10;24.60;;;;;;;21.47;64.92;98937.71;1707396;84;21030;-84
2022/07/01 02:50:07;;;;;;;58.20;23.02;;;;;;;21.43;64.64;98945.02;1707421;84;20978;-84
2022/07/01 02:52:36;;;;;;;45.83;19.17;;;;;;;21.37;64.52;98952.53;1708265;83;21019;-85
2022/07/01 02:55:05;;;;;;;46.80;19.45;;;;;;;21.31;67.43;98948.97;1708213;83;21003;-85
2022/07/01 02:57:32;;;;;;;54.33;18.48;;;;;;;21.32;65.96;98952.00;1708053;84;21014;-84
2022/07/01 02:59:59;;;;;;;45.20;15.78;;;;;;;21.31;68.11;98947.66;1708503;83;20979;-85
2022/07/01 03:02:26;;;;;;;38.63;15.18;;;;;;;21.32;68.12;98949.36;1708126;83;21075;-84
2022/07/01 03:04:54;;;;;;;33.23;14.53;;;;;;;21.29;68.13;98958.36;1707173;83;20975;-82
2022/07/01 03:07:21;;;;;;;37.50;14.15;;;;;;;21.28;65.97;98953.18;1707246;83;21023;-83
2022/07/01 03:09:48;;;;;;;19.07;10.68;;;;;;;21.24;66.42;98957.84;1707335;83;20998;-84
2022/07/01 03:12:28;;;;;;;22.80;9.30;;;;;;;21.21;66.37;98961.55;1708036;83;21034;-84
2022/07/01 03:15:01;;;;;;;16.67;7.55;;;;;;;21.21;66.57;98951.46;1704451;84;21575;-85
2022/07/01 03:17:31;;;;;;;;;;;;;;;21.21;67.20;98965.52;1737711;83;21030;-84
2022/07/01 03:19:58;;;;;;;10.45;5.78;;;;;;;21.19;68.72;98962.14;1735169;82;20398;-84
2022/07/01 03:22:29;;;;;;;14.35;6.33;;;;;;;21.21;67.39;98970.80;1704461;84;21466;-84
2022/07/01 03:24:56;;;;;;;13.22;5.72;;;;;;;21.23;66.50;98964.09;1735185;83;20978;-84
2022/07/01 03:27:25;;;;;;;14.45;6.28;;;;;;;21.22;66.56;98971.64;1735178;83;21006;-84
2022/07/01 03:29:52;;;;;;;11.53;5.90;;;;;;;21.20;66.46;98973.06;1734671;82;21081;-84
2022/07/01 03:32:19;;;;;;;10.03;5.80;;;;;;;21.15;66.01;98980.49;1704282;84;21019;-84
2022/07/01 03:34:49;;;;;;;10.05;5.80;;;;;;;21.10;67.13;98981.77;1734734;83;21514;-83
2022/07/01 03:37:17;;;;;;;9.33;5.80;;;;;;;21.09;66.19;98974.77;1734900;83;21087;-84
2022/07/01 03:39:44;;;;;;;12.82;6.42;;;;;;;21.08;66.49;98971.30;1735332;81;21525;-84
2022/07/01 03:42:11;;;;;;;12.20;6.20;;;;;;;21.11;65.95;98990.05;1736088;83;21002;-84
2022/07/01 03:44:39;;;;;;;18.62;6.22;;;;;;;21.14;66.17;98987.20;1736225;83;21041;-84
2022/07/01 03:47:06;;;;;;;10.80;5.92;;;;;;;21.16;65.52;98986.13;1736179;83;20998;-84
2022/07/01 03:49:35;;;;;;;9.25;6.40;;;;;;;21.17;66.23;98982.55;1736045;82;21003;-84
2022/07/01 03:52:06;;;;;;;14.53;6.72;;;;;;;21.23;66.30;98979.47;1734861;83;20986;-84
2022/07/01 03:54:37;;;;;;;13.98;6.65;;;;;;;21.31;65.70;98991.28;1723212;83;21482;-83
2022/07/01 03:57:08;;;;;;;15.95;6.83;;;;;;;21.38;65.87;98996.52;1734404;83;21046;-84
2022/07/01 03:59:38;;;;;;;13.80;7.17;;;;;;;21.45;66.64;98997.81;1668790;85;21095;-84
2022/07/01 04:02:06;;;;;;;17.45;6.75;;;;;;;21.51;65.88;99001.82;1650067;86;21015;-84
2022/07/01 04:04:34;;;;;;;14.87;7.22;;;;;;;21.54;65.74;99001.09;1679300;84;21483;-84
2022/07/01 04:07:03;;;;;;;13.43;7.20;;;;;;;21.57;66.50;98997.41;1698312;84;20995;-84
2022/07/01 04:09:31;;;;;;;12.43;6.78;;;;;;;21.63;66.13;98998.28;1696054;84;20956;-84
2022/07/01 04:11:58;;;;;;;15.35;6.30;;;;;;;21.68;65.18;98999.27;1698746;84;21028;-84
2022/07/01 04:14:25;;;;;;;15.68;8.58;;;;;;;21.69;64.96;98997.84;1689699;84;21460;-84
2022/07/01 04:16:53;;;;;;;23.52;11.65;;;;;;;21.68;65.16;99004.07;1679341;84;20992;-83
2022/07/01 04:19:20;;;;;;;27.48;10.78;;;;;;;21.71;65.62;98999.06;1691915;84;21019;-84
2022/07/01 04:24:33;;;;;;;18.42;8.03;;;;;;;21.79;65.99;98995.37;1698007;84;20979;-84
2022/07/01 04:27:00;;;;;;;14.40;7.35;;;;;;;21.87;66.32;99001.43;1698726;84;20976;-84
2022/07/01 04:29:29;;;;;;;15.15;7.67;;;;;;;21.91;65.91;99005.05;1695069;84;21004;-85
2022/07/01 04:31:56;;;;;;;13.90;7.10;;;;;;;21.93;66.53;99003.14;1699135;84;20984;-85
2022/07/01 04:34:24;;;;;;;15.68;8.33;;;;;;;22.00;66.18;99005.71;1697406;84;21043;-84
2022/07/01 04:36:50;;;;;;;14.50;7.60;;;;;;;;;;1698666;84;21138;-84
2022/07/01 04:39:17;;;;;;;14.13;8.33;;;;;;;22.18;65.98;99005.28;1692264;84;21067;-85
2022/07/01 04:41:59;;;;;;;13.20;8.43;;;;;;;22.27;66.33;99006.45;1668245;85;21014;-85
2022/07/01 04:44:28;;;;;;;12.28;8.05;;;;;;;22.34;65.61;99010.30;1683929;85;21023;-85
2022/07/01 04:46:55;;;;;;;18.95;8.45;;;;;;;22.37;65.78;99004.30;1681812;85;21022;-84
2022/07/01 04:49:22;;;;;;;13.32;8.05;;;;;;;22.48;65.38;99006.62;1682066;85;21074;-85
2022/07/01 04:51:49;;;;;;;15.05;8.23;;;;;;;22.54;65.06;99004.83;1675152;85;21019;-85
2022/07/01 04:54:17;;;;;;;13.53;8.43;;;;;;;22.61;65.08;99010.03;1668556;85;21058;-85
2022/07/01 04:56:43;;;;;;;12.25;8.35;;;;;;;22.70;64.83;99015.97;1679990;85;20940;-85
2022/07/01 04:59:11;;;;;;;16.57;8.28;;;;;;;22.79;64.54;99015.73;1670614;85;21005;-85
2022/07/01 05:01:39;;;;;;;14.98;8.68;;;;;;;22.87;63.87;99014.66;1669259;85;20995;-84
2022/07/01 05:04:05;;;;;;;19.05;8.43;;;;;;;22.93;64.03;99015.98;1684196;85;21031;-84
2022/07/01 05:06:33;;;;;;;13.98;8.33;;;;;;;23.03;63.94;99019.64;1678292;85;21580;-85
2022/07/01 05:09:00;;;;;;;17.32;10.10;;;;;;;23.15;63.49;99023.98;1683110;85;20998;-84
2022/07/01 05:11:27;;;;;;;13.62;7.67;;;;;;;23.25;63.57;99025.92;1680319;85;21011;-84
2022/07/01 05:13:54;;;;;;;11.65;7.80;;;;;;;23.34;63.12;99020.73;1684180;85;20999;-84
2022/07/01 05:16:21;;;;;;;12.33;7.80;;;;;;;23.42;62.96;99018.81;1681982;85;21011;-83
2022/07/01 05:24:18;;;;;;;16.32;8.63;;;;;;;23.68;62.40;99015.88;1684330;85;21018;-85
2022/07/01 05:26:45;;;;;;;12.03;8.35;;;;;;;23.77;62.11;99022.62;1684276;85;21036;-84
2022/07/01 05:29:12;;;;;;;15.83;10.75;;;;;;;23.86;61.78;99018.88;1664906;85;21019;-83
2022/07/01 05:31:38;;;;;;;18.12;8.73;;;;;;;23.95;61.80;99017.63;1683989;85;21114;-84
2022/07/01 05:34:06;;;;;;;11.97;7.58;;;;;;;24.04;61.31;99015.20;1676914;85;21007;-84
2022/07/01 05:36:34;;;;;;;15.80;8.03;;;;;;;24.09;61.39;99020.97;1671107;85;21072;-84
2022/07/01 05:39:00;;;;;;;14.95;8.30;;;;;;;24.17;61.21;99018.52;1694519;84;21547;-84
2022/07/01 05:41:28;;;;;;;12.18;7.62;;;;;;;24.26;61.00;99016.94;1688881;84;21048;-84
2022/07/01 05:43:55;;;;;;;12.43;7.47;;;;;;;24.30;60.32;99016.54;1706703;83;21014;-85
2022/07/01 05:46:22;;;;;;;13.48;7.45;;;;;;;24.35;60.17;99019.67;1712791;83;21010;-84
2022/07/01 05:48:49;;;;;;;16.25;7.40;;;;;;;24.41;59.97;99020.48;1707316;83;21521;-84
2022/07/01 05:51:15;;;;;;;19.80;7.30;;;;;;;24.51;59.78;99017.93;1718685;83;21031;-85
2022/07/01 05:53:44;;;;;;;12.85;8.05;;;;;;;24.56;59.63;99020.19;1693764;84;20970;-85
2022/07/01 05:56:11;;;;;;;11.08;7.00;;;;;;;24.62;59.48;99017.02;1717673;83;21038;-84
2022/07/01 05:58:38;;;;;;;11.33;6.70;;;;;;;24.71;58.92;99015.38;1715408;83;20994;-83
2022/07/01 06:01:04;;;;;;;10.70;7.30;;;;;;;24.77;58.70;99020.17;1707604;83;21037;-84
2022/07/01 06:03:31;;;;;;;11.43;6.92;;;;;;;24.85;58.34;99022.17;1713350;83;21030;-84
2022/07/01 06:06:00;;;;;;;12.43;7.17;;;;;;;24.93;57.71;99017.91;1702463;83;20991;-84
2022/07/01 06:08:27;;;;;;;13.05;7.65;;;;;;;24.99;57.64;99017.87;1711114;83;20990;-84
2022/07/01 06:10:53;;;;;;;15.63;7.72;;;;;;;25.01;57.51;99015.92;1705923;83;21022;-84
2022/07/01 06:13:20;;;;;;;16.77;7.12;;;;;;;25.08;57.39;99018.38;1719135;83;20958;-82
2022/07/01 06:15:47;;;;;;;11.55;6.83;;;;;;;25.13;56.92;99021.50;1707538;83;21148;-85
2022/07/01 06:18:14;;;;;;;9.38;6.85;;;;;;;25.19;56.77;99022.80;1732767;82;21568;-84
2022/07/01 06:20:41;;;;;;;12.03;6.33;;;;;;;25.27;56.63;99018.14;1745022;82;20977;-84
2022/07/01 06:23:08;;;;;;;10.20;7.12;;;;;;;25.33;55.98;99016.30;1747169;82;20957;-85
2022/07/01 06:25:35;;;;;;;12.70;6.62;;;;;;;25.40;55.96;99012.10;1741324;82;20966;-84
2022/07/01 06:28:02;;;;;;;13.08;6.97;;;;;;;25.50;55.48;99011.64;1747253;82;20966;-85
2022/07/01 06:30:29;;;;;;;11.75;6.47;;;;;;;25.54;54.71;99008.23;1727949;82;21545;-82
2022/07/01 06:32:56;;;;;;;10.15;6.28;;;;;;;25.63;54.75;99007.91;1746106;82;20974;-84
2022/07/01 06:35:22;;;;;;;9.70;6.40;;;;;;;25.70;54.25;99008.53;1744295;82;21022;-83
2022/07/01 06:37:49;;;;;;;12.37;6.08;;;;;;;25.77;53.76;99013.67;1736948;81;21041;-80
2022/07/01 06:40:16;;;;;;;11.03;6.08;;;;;;;25.86;53.61;99010.66;1735113;81;20983;-80
2022/07/01 06:42:43;;;;;;;8.98;6.28;;;;;;;25.93;53.00;99003.02;1730531;83;20963;-84
2022/07/01 06:45:11;;;;;;;13.68;6.72;;;;;;;26.01;52.10;98998.33;1731628;83;21509;-82
2022/07/01 06:47:37;;;;;;;11.28;6.83;;;;;;;26.04;52.60;98998.87;1733792;81;20954;-85
2022/07/01 06:50:06;;;;;;;12.53;8.23;;;;;;;26.13;52.43;99001.20;1732893;83;20990;-79
2022/07/01 06:52:32;;;;;;;13.68;7.65;;;;;;;26.27;52.25;99003.44;1733079;83;20978;-78
2022/07/01 06:55:00;;;;;;;13.40;6.72;;;;;;;26.37;52.24;99000.27;1727422;83;21006;-78
2022/07/01 06:57:27;;;;;;;11.33;6.75;;;;;;;26.49;51.66;98998.80;1727969;83;21033;-78
2022/07/01 06:59:54;;;;;;;14.15;6.75;;;;;;;26.59;51.02;99002.31;1702809;84;21006;-87
2022/07/01 07:02:21;;;;;;;13.85;7.37;;;;;;;26.65;51.12;98999.58;1727814;83;21003;-81
2022/07/01 07:04:47;;;;;;;20.57;13.05;;;;;;;26.71;50.92;99001.16;1701913;83;20960;-82
2022/07/01 07:07:17;;;;;;;12.58;6.67;;;;;;;26.82;50.64;99000.64;1732724;81;20998;-82
2022/07/01 07:09:44;;;;;;;11.53;6.80;;;;;;;26.90;50.17;98996.75;1720047;83;20959;-84
2022/07/01 07:12:11;;;;;;;10.85;7.60;;;;;;;26.98;49.40;98996.89;1729676;83;20971;-83
2022/07/01 07:14:38;;;;;;;14.25;6.67;;;;;;;27.03;49.32;98986.61;1718866;83;20950;-83
2022/07/01 07:17:05;;;;;;;12.40;7.00;;;;;;;27.11;49.73;98993.38;1734227;83;20974;-82
2022/07/01 07:19:32;;;;;;;9.88;6.25;;;;;;;27.23;49.80;98991.36;1723583;83;20950;-83
2022/07/01 07:21:59;;;;;;;11.48;6.95;;;;;;;27.34;49.46;98981.88;1697833;84;21020;-83
2022/07/01 07:24:26;;;;;;;9.20;6.50;;;;;;;27.45;49.31;98982.16;1687125;84;20992;-83
2022/07/01 07:26:52;;;;;;;10.10;6.60;;;;;;;27.56;49.03;98981.95;1734164;82;20951;-83
2022/07/01 07:29:19;;;;;;;16.00;6.65;;;;;;;27.67;48.80;98986.23;1734275;83;20990;-83
2022/07/01 07:31:46;;;;;;;10.18;6.65;;;;;;;27.74;48.54;98983.82;1697418;84;21055;-83
2022/07/01 07:34:13;;;;;;;13.60;7.12;;;;;;;27.82;48.48;98981.23;1734201;82;22200;-83
2022/07/01 07:36:39;;;;;;;12.98;7.17;;;;;;;27.91;48.44;98980.84;1700289;84;21019;-84
2022/07/01 07:39:06;;;;;;;10.45;6.70;;;;;;;28.04;47.96;98979.13;1729532;83;21039;-84
2022/07/01 07:41:34;;;;;;;15.13;7.10;;;;;;;28.12;47.86;98977.87;1713265;82;20970;-85
2022/07/01 07:44:00;;;;;;;10.82;7.00;;;;;;;28.19;47.28;98978.91;1654724;86;21555;-84
2022/07/01 07:46:27;;;;;;;10.63;7.03;;;;;;;28.21;46.59;98980.10;1685705;85;20968;-84
2022/07/01 07:48:54;;;;;;;16.23;7.30;;;;;;;28.25;47.17;98975.65;1699022;84;21032;-84
2022/07/01 07:51:22;;;;;;;9.70;7.17;;;;;;;28.35;47.13;98971.05;1698069;84;21503;-83
2022/07/01 07:53:49;;;;;;;10.93;6.80;;;;;;;28.48;47.25;98977.82;1698854;84;21036;-84
2022/07/01 07:56:18;;;;;;;12.80;6.70;;;;;;;28.59;46.79;98970.92;1684050;84;21039;-84
2022/07/01 07:58:45;;;;;;;12.98;7.08;;;;;;;28.70;46.87;98965.29;1686295;84;20956;-85
2022/07/01 08:01:12;;;;;;;10.08;6.58;;;;;;;28.85;46.65;98965.56;1664674;84;21012;-85
2022/07/01 08:03:39;;;;;;;9.65;6.40;;;;;;;29.00;46.38;98969.80;1699767;84;20964;-84
2022/07/01 08:06:06;;;;;;;8.98;6.72;;;;;;;29.12;46.22;98970.39;1695727;84;21048;-84
2022/07/01 08:08:33;;;;;;;10.28;6.53;;;;;;;29.27;46.03;98970.64;1685314;85;21007;-84
2022/07/01 08:11:00;;;;;;;17.67;7.40;;;;;;;29.40;45.71;98966.98;1713594;83;21491;-84
2022/07/01 08:13:27;;;;;;;13.00;6.87;;;;;;;29.48;45.05;98969.69;1675163;84;21035;-84
2022/07/01 08:15:55;;;;;;;10.13;6.40;;;;;;;29.57;45.20;98969.73;1696272;82;21028;-83
2022/07/01 08:18:22;;;;;;;17.37;7.20;;;;;;;29.68;45.20;98970.23;1689775;82;21563;-84
2022/07/01 08:20:52;;;;;;;10.88;6.47;;;;;;;29.79;44.40;98961.09;1700582;82;21031;-85
2022/07/01 08:23:23;;;;;;;9.23;6.62;;;;;;;29.82;43.95;98961.26;1682158;83;21011;-84
2022/07/01 08:25:51;;;;;;;13.98;7.03;;;;;;;29.82;43.74;98961.26;1675801;85;21477;-84
2022/07/01 08:28:18;;;;;;;11.95;6.78;;;;;;;29.87;43.50;98962.45;1696300;84;20956;-85
2022/07/01 08:30:46;;;;;;;8.43;6.55;;;;;;;29.87;43.23;98961.62;1678508;84;21000;-85
2022/07/01 08:33:13;;;;;;;9.85;6.72;;;;;;;29.87;43.27;98964.30;1690817;85;20971;-84
2022/07/01 08:35:40;;;;;;;9.40;6.10;;;;;;;29.97;43.08;98961.46;1690972;84;20996;-84
2022/07/01 08:38:07;;;;;;;8.60;6.17;;;;;;;30.02;42.96;98963.13;1689803;84;21504;-83
2022/07/01 08:40:36;;;;;;;9.05;6.80;;;;;;;30.04;42.83;98961.11;1688446;84;21551;-83
2022/07/01 08:43:06;;;;;;;11.08;6.97;;;;;;;30.09;42.74;98956.10;1681639;85;21007;-84
2022/07/01 08:45:36;;;;;;;10.55;6.40;;;;;;;30.17;42.20;98960.12;1666085;85;21079;-84
2022/07/01 08:48:03;;;;;;;9.73;7.65;;;;;;;30.25;42.17;98953.92;1679299;85;21047;-85
2022/07/01 08:50:39;;;;;;;15.38;7.60;;;;;;;30.36;42.38;98954.10;1669009;85;21471;-83
2022/07/01 08:53:07;;;;;;;15.90;8.58;;;;;;;30.51;42.33;98947.05;1666203;85;20988;-84
2022/07/01 08:56:40;;;;;;;8.35;6.45;;;;;;;30.67;42.26;98948.35;1684734;85;21042;-87
2022/07/01 08:58:03;;;;;;;10.93;6.50;;;;;;;30.86;42.08;98944.45;1664130;85;20983;-84
2022/07/01 09:00:31;;;;;;;10.78;6.40;;;;;;;31.00;41.88;98945.62;1685425;85;20964;-85
2022/07/01 09:03:01;;;;;;;10.85;6.03;;;;;;;31.16;42.03;98935.80;1686557;85;20976;-85
2022/07/01 09:05:30;;;;;;;10.88;6.85;;;;;;;31.35;41.59;98941.27;1687458;85;21038;-84
2022/07/01 09:08:01;;;;;;;10.72;6.53;;;;;;;31.46;40.57;98935.53;1687381;85;21492;-84
2022/07/01 09:10:34;;;;;;;10.53;6.15;;;;;;;31.58;40.96;98931.95;1686336;85;21570;-83
2022/07/01 09:13:07;;;;;;;9.53;6.37;;;;;;;31.75;40.70;98929.45;1686462;85;21059;-83
2022/07/01 09:15:36;;;;;;;10.40;6.10;;;;;;;31.96;40.33;98929.32;1673688;85;21018;-84
2022/07/01 09:18:07;;;;;;;8.20;5.95;;;;;;;32.17;39.97;98932.69;1686560;85;21088;-84
2022/07/01 09:20:37;;;;;;;11.60;6.67;;;;;;;32.28;39.36;98929.06;1669757;85;20966;-85
2022/07/01 09:23:14;;;;;;;9.20;5.50;;;;;;;32.36;39.06;98920.59;1672361;85;21041;-84
2022/07/01 09:25:51;;;;;;;9.68;6.17;;;;;;;32.49;37.39;98922.12;1684594;85;20968;-85
2022/07/01 09:28:22;;;;;;;12.03;6.22;;;;;;;32.51;38.18;98920.11;1688166;85;20961;-86
2022/07/01 09:30:52;;;;;;;10.10;6.22;;;;;;;32.62;38.17;98921.02;1673221;85;21460;-86
2022/07/01 09:33:29;;;;;;;9.88;5.92;;;;;;;32.77;38.03;98917.48;1685931;85;21089;-85
2022/07/01 09:35:57;;;;;;;8.88;5.47;;;;;;;32.92;37.57;98912.94;1673571;85;21038;-84
2022/07/01 09:38:25;;;;;;;9.03;5.47;;;;;;;33.10;37.12;98909.88;1686530;85;21035;-83
2022/07/01 09:40:58;;;;;;;9.98;5.45;;;;;;;33.24;36.87;98910.36;1688824;84;21044;-84
2022/07/01 09:43:31;;;;;;;9.68;5.37;;;;;;;33.40;36.67;98909.30;1694779;85;21040;-85
2022/07/01 09:46:11;;;;;;;9.55;5.70;;;;;;;33.53;35.86;98907.80;1696238;84;21031;-81
2022/07/01 09:48:43;;;;;;;9.28;5.28;;;;;;;33.57;35.30;98903.17;1697651;84;21068;-85
2022/07/01 09:51:11;;;;;;;10.72;5.10;;;;;;;33.62;35.07;98903.97;1697013;84;21000;-83
2022/07/01 09:53:38;;;;;;;7.62;5.00;;;;;;;33.72;34.67;98896.39;1684251;84;21022;-83
2022/07/01 09:56:06;;;;;;;8.75;4.95;;;;;;;33.76;34.04;98891.45;1700206;84;21036;-85
2022/07/01 09:58:38;;;;;;;7.90;4.42;;;;;;;33.82;33.24;98892.88;1672579;84;20980;-84
2022/07/01 10:01:07;;;;;;;10.55;4.35;;;;;;;33.91;33.22;98892.75;1697977;84;21044;-84
2022/07/01 10:03:37;;;;;;;8.28;4.40;;;;;;;33.99;33.29;98894.78;1690856;84;21632;-85
2022/07/01 10:06:10;;;;;;;8.58;4.85;;;;;;;34.09;32.55;98893.09;1698267;84;21051;-84
2022/07/01 10:09:19;;;;;;;11.18;6.03;;;;;;;34.14;33.00;98884.41;1654108;86;21023;-84
2022/07/01 10:12:20;;;;;;;9.40;4.90;;;;;;;34.27;32.88;98877.28;1676746;84;21011;-86
2022/07/01 10:14:49;;;;;;;5.62;4.47;;;;;;;34.47;32.46;98886.03;1699784;84;21008;-84
2022/07/01 10:17:38;;;;;;;7.85;4.80;;;;;;;34.64;32.18;98890.08;1677171;84;21004;-85
2022/07/01 10:20:14;;;;;;;6.53;4.90;;;;;;;34.73;32.17;98885.38;1700115;84;21048;-85
2022/07/01 10:22:45;;;;;;;8.78;4.65;;;;;;;34.88;31.68;98879.86;1672486;84;20987;-83
2022/07/01 10:25:38;;;;;;;10.05;5.12;;;;;;;35.00;31.81;98878.23;1700937;84;21099;-84
2022/07/01 10:28:42;;;;;;;6.47;4.87;;;;;;;35.04;31.61;98872.75;1672827;83;20988;-83
2022/07/01 10:31:20;;;;;;;7.35;5.12;;;;;;;35.07;31.73;98874.20;1672742;83;21043;-84
2022/07/01 10:33:57;;;;;;;5.92;4.65;;;;;;;35.21;31.57;98864.30;1691536;83;21040;-84
2022/07/01 10:36:33;;;;;;;9.95;5.50;;;;;;;35.32;31.32;98861.02;1715599;81;21146;-83
2022/07/01 10:39:13;;;;;;;6.70;4.78;;;;;;;35.38;31.05;98853.44;1694052;79;21029;-84
2022/07/01 10:41:57;;;;;;;10.53;4.80;;;;;;;35.42;31.33;98849.81;1690785;79;21021;-84
2022/07/01 10:47:18;;;;;;;9.20;4.95;;;;;;;35.65;31.40;98848.91;1646658;85;21039;-83
2022/07/01 10:49:55;;;;;;;11.57;5.40;;;;;;;35.78;30.40;98842.70;1661514;83;21042;-82
2022/07/01 10:52:22;;;;;;;8.95;4.95;;;;;;;35.88;30.57;98842.81;1674533;83;21150;-84
2022/07/01 10:54:55;;;;;;;10.40;5.08;;;;;;;35.91;30.71;98841.03;1672532;84;20971;-83
2022/07/01 10:57:33;;;;;;;7.03;4.85;;;;;;;35.86;30.36;98838.13;1670859;82;23331;-80
2022/07/01 11:00:05;;;;;;;7.60;5.00;;;;;;;35.73;30.22;98839.77;1690551;85;21013;-84
2022/07/01 11:02:34;;;;;;;;;;;;;;;35.76;30.69;98831.26;1693141;84;21013;-84
2022/07/01 11:05:09;;;;;;;7.75;4.85;;;;;;;35.91;30.18;98838.32;1690717;82;20108;-84
2022/07/01 11:07:39;;;;;;;11.95;5.22;;;;;;;36.02;30.82;98837.70;1689228;84;20994;-83
2022/07/01 11:10:08;;;;;;;7.70;4.62;;;;;;;36.31;30.59;98833.74;1689101;85;20991;-83
2022/07/01 11:12:36;;;;;;;7.95;5.17;;;;;;;36.31;30.59;98833.74;1679572;83;21152;-82
2022/07/01 11:15:10;;;;;;;10.82;5.37;;;;;;;36.54;30.83;98822.41;1654058;87;21068;-83
2022/07/01 11:17:49;;;;;;;10.00;6.58;;;;;;;36.54;30.83;98822.41;1654195;85;20962;-88
2022/07/01 11:45:35;;;;;;;8.53;4.25;;;;;;;37.74;28.31;98846.21;1675245;84;21561;-89
2022/07/01 11:48:02;;;;;;;5.20;4.22;;;;;;;38.02;25.51;98855.79;1685704;84;21069;-89
2022/07/01 11:50:30;;;;;;;7.33;3.87;;;;;;;37.99;25.36;98858.97;1685248;84;21037;-90
2022/07/01 11:52:57;;;;;;;7.17;4.65;;;;;;;37.93;25.48;98850.36;1675481;85;21035;-91
2022/07/01 11:55:24;;;;;;;6.17;4.53;;;;;;;37.89;25.55;98854.57;1730534;81;20997;-90
2022/07/01 11:57:52;;;;;;;9.75;4.78;;;;;;;37.81;24.39;98843.47;1703524;82;21005;-88
2022/07/01 12:00:20;;;;;;;5.87;4.10;;;;;;;37.87;25.16;98841.22;1723445;81;21058;-90
2022/07/01 12:02:53;;;;;;;8.95;4.35;;;;;;;37.88;24.85;98836.62;1726923;81;21519;-90
2022/07/01 12:05:20;;;;;;;8.05;4.28;;;;;;;38.05;24.47;98834.18;1733070;81;21068;-77
2022/07/01 12:07:47;;;;;;;7.33;3.80;;;;;;;38.14;24.23;98836.92;1732258;81;20964;-78
2022/07/01 12:10:16;;;;;;;10.03;3.67;;;;;;;37.99;24.08;98835.90;1729954;81;20991;-78
2022/07/01 12:12:43;;;;;;;13.32;4.30;;;;;;;37.99;24.67;98827.23;1733169;81;21443;-79